createdAt,value
2022-12-04T00:00:45.708Z,35.60
2022-12-04T00:03:22.602Z,34.87
2022-12-04T00:06:02.445Z,37.63
2022-12-04T00:08:32.470Z,34.33
2022-12-04T00:11:04.005Z,35.27
2022-12-04T00:13:34.507Z,33.53
2022-12-04T00:16:06.590Z,32.13
2022-12-04T00:18:36.889Z,32.00
2022-12-04T00:21:08.332Z,32.40
2022-12-04T00:23:39.903Z,30.50
2022-12-04T00:26:11.634Z,32.05
2022-12-04T00:28:42.570Z,29.85
2022-12-04T00:31:16.858Z,28.33
2022-12-04T00:33:46.799Z,29.07
2022-12-04T00:36:19.589Z,27.47
2022-12-04T00:38:49.403Z,27.95
2022-12-04T00:41:22.298Z,27.13
2022-12-04T00:43:52.836Z,23.27
2022-12-04T00:46:23.607Z,30.10
2022-12-04T00:48:54.047Z,28.57
2022-12-04T00:51:25.744Z,25.67
2022-12-04T00:53:56.025Z,25.45
2022-12-04T00:56:27.496Z,25.23
2022-12-04T00:58:59.294Z,28.00
2022-12-04T01:01:29.426Z,24.65
2022-12-04T01:03:59.256Z,29.10
2022-12-04T01:06:30.927Z,22.97
2022-12-04T01:09:02.392Z,25.92
2022-12-04T01:11:33.283Z,27.20
2022-12-04T01:14:03.104Z,29.10
2022-12-04T01:16:35.610Z,26.17
2022-12-04T01:19:06.698Z,24.37
2022-12-04T01:21:37.215Z,26.67
2022-12-04T01:24:09.176Z,24.70
2022-12-04T01:26:38.963Z,24.10
2022-12-04T01:29:10.044Z,25.87
2022-12-04T01:31:39.804Z,25.33
2022-12-04T01:34:09.458Z,23.50
2022-12-04T01:36:39.645Z,21.87
2022-12-04T01:39:09.305Z,23.17
2022-12-04T01:41:38.987Z,24.20
2022-12-04T01:44:17.744Z,22.83
2022-12-04T01:46:53.261Z,19.87
2022-12-04T01:49:29.850Z,21.43
2022-12-04T01:52:02.282Z,20.13
2022-12-04T01:57:07.483Z,19.93
2022-12-04T01:59:43.254Z,19.83
2022-12-04T02:02:15.469Z,21.07
2022-12-04T02:04:47.689Z,18.20
2022-12-04T02:07:17.507Z,20.10
2022-12-04T02:09:53.686Z,19.07
2022-12-04T02:12:33.219Z,20.10
2022-12-04T02:15:10.067Z,19.40
2022-12-04T02:17:45.244Z,17.03
2022-12-04T02:20:26.490Z,18.63
2022-12-04T02:23:19.790Z,16.03
2022-12-04T02:26:00.358Z,17.50
2022-12-04T02:28:43.848Z,16.87
2022-12-04T02:31:19.178Z,15.97
2022-12-04T02:33:56.780Z,15.37
2022-12-04T02:36:31.813Z,15.70
2022-12-04T02:39:08.112Z,14.07
2022-12-04T02:41:42.737Z,12.70
2022-12-04T02:44:16.592Z,15.17
2022-12-04T02:46:48.950Z,14.03
2022-12-04T02:49:24.306Z,14.83
2022-12-04T02:51:55.476Z,14.23
2022-12-04T02:54:31.091Z,16.43
2022-12-04T02:57:03.061Z,14.07
2022-12-04T02:59:36.851Z,16.52
2022-12-04T03:02:14.142Z,16.57
2022-12-04T03:04:50.596Z,17.53
2022-12-04T03:07:25.827Z,14.97
2022-12-04T03:10:00.050Z,17.17
2022-12-04T03:12:41.805Z,15.50
2022-12-04T03:15:16.836Z,16.30
2022-12-04T03:17:54.195Z,15.37
2022-12-04T03:20:25.417Z,17.37
2022-12-04T03:22:59.729Z,15.60
2022-12-04T03:25:36.218Z,16.47
2022-12-04T03:28:11.193Z,17.73
2022-12-04T03:30:49.898Z,15.87
2022-12-04T03:33:25.943Z,17.27
2022-12-04T03:36:05.057Z,17.33
2022-12-04T03:38:39.959Z,16.83
2022-12-04T03:41:19.838Z,16.47
2022-12-04T03:43:53.143Z,16.27
2022-12-04T03:46:30.037Z,16.27
2022-12-04T03:49:08.061Z,15.87
2022-12-04T03:51:43.328Z,17.50
2022-12-04T03:54:20.381Z,16.23
2022-12-04T03:56:57.209Z,15.67
2022-12-04T03:59:29.533Z,14.77
2022-12-04T04:02:03.594Z,15.77
2022-12-04T04:04:36.981Z,15.13
2022-12-04T04:07:12.934Z,15.17
2022-12-04T04:09:48.246Z,13.87
2022-12-04T04:12:20.871Z,15.80
2022-12-04T04:15:12.591Z,14.90
2022-12-04T04:18:03.557Z,14.27
2022-12-04T04:20:56.017Z,14.20
2022-12-04T04:23:48.041Z,14.40
2022-12-04T04:26:18.667Z,16.07
2022-12-04T04:28:48.241Z,15.13
2022-12-04T04:31:24.317Z,16.83
2022-12-04T04:34:00.113Z,16.63
2022-12-04T04:36:42.154Z,14.83
2022-12-04T04:39:19.750Z,16.40
2022-12-04T04:41:55.488Z,15.77
2022-12-04T04:44:33.246Z,15.50
2022-12-04T04:47:07.036Z,15.27
2022-12-04T04:49:39.936Z,15.17
2022-12-04T04:52:10.072Z,14.73
2022-12-04T04:54:40.946Z,15.70
2022-12-04T04:57:10.529Z,14.50
2022-12-04T04:59:40.115Z,14.37
2022-12-04T05:02:10.869Z,14.60
2022-12-04T05:04:40.483Z,13.70
2022-12-04T05:07:09.840Z,14.50
2022-12-04T05:09:41.443Z,15.67
2022-12-04T05:12:11.271Z,14.38
2022-12-04T05:14:40.941Z,15.00
2022-12-04T05:17:12.797Z,15.43
2022-12-04T05:19:56.531Z,14.30
2022-12-04T05:22:30.183Z,16.80
2022-12-04T05:25:01.274Z,16.97
2022-12-04T05:27:31.796Z,16.13
2022-12-04T05:30:01.124Z,15.43
2022-12-04T05:32:31.059Z,15.17
2022-12-04T05:35:01.121Z,15.77
2022-12-04T05:37:31.412Z,18.20
2022-12-04T05:40:00.951Z,16.73
2022-12-04T05:42:30.436Z,17.60
2022-12-04T05:44:59.911Z,16.93
2022-12-04T05:47:29.432Z,16.53
2022-12-04T05:49:58.852Z,18.60
2022-12-04T05:52:28.465Z,16.80
2022-12-04T05:55:08.042Z,15.77
2022-12-04T05:57:40.876Z,17.10
2022-12-04T06:00:14.285Z,17.67
2022-12-04T06:02:44.090Z,18.57
2022-12-04T06:05:14.172Z,19.13
2022-12-04T06:07:43.795Z,18.73
2022-12-04T06:10:13.302Z,19.83
2022-12-04T06:12:42.946Z,17.83
2022-12-04T06:15:12.953Z,17.90
2022-12-04T06:17:42.305Z,18.37
2022-12-04T06:20:13.408Z,18.27
2022-12-04T06:22:43.015Z,18.80
2022-12-04T06:25:12.650Z,17.93
2022-12-04T06:27:44.074Z,20.57
2022-12-04T06:30:14.460Z,16.93
2022-12-04T06:32:44.127Z,17.43
2022-12-04T06:35:13.596Z,19.63
2022-12-04T06:37:43.255Z,20.43
2022-12-04T06:40:15.949Z,17.37
2022-12-04T06:42:45.407Z,18.40
2022-12-04T06:45:15.215Z,18.00
2022-12-04T06:47:44.674Z,18.60
2022-12-04T06:50:14.351Z,18.87
2022-12-04T06:52:44.149Z,18.97
2022-12-04T06:55:13.681Z,19.00
2022-12-04T06:57:43.246Z,19.60
2022-12-04T07:00:14.853Z,19.37
2022-12-04T07:02:44.557Z,19.92
2022-12-04T07:05:14.383Z,20.87
2022-12-04T07:07:44.878Z,20.47
2022-12-04T07:10:14.479Z,20.33
2022-12-04T07:12:44.161Z,17.70
2022-12-04T07:15:13.689Z,19.90
2022-12-04T07:17:44.965Z,20.37
2022-12-04T07:20:15.600Z,20.67
2022-12-04T07:23:28.353Z,21.10
2022-12-04T07:25:58.136Z,23.30
2022-12-04T07:28:27.625Z,20.25
2022-12-04T07:31:14.613Z,18.40
2022-12-04T07:33:58.693Z,20.70
2022-12-04T07:36:32.925Z,18.80
2022-12-04T07:39:02.323Z,18.20
2022-12-04T07:41:32.403Z,19.33
2022-12-04T07:44:08.590Z,18.00
2022-12-04T07:46:38.239Z,18.60
2022-12-04T07:49:07.690Z,18.80
2022-12-04T07:51:37.229Z,20.73
2022-12-04T07:54:08.366Z,19.80
2022-12-04T07:56:38.004Z,18.97
2022-12-04T07:59:10.615Z,20.03
2022-12-04T08:04:11.828Z,18.00
2022-12-04T08:06:41.552Z,16.12
2022-12-04T08:09:11.190Z,18.83
2022-12-04T08:11:42.149Z,18.20
2022-12-04T08:14:16.462Z,17.87
2022-12-04T08:16:51.066Z,16.97
2022-12-04T08:19:22.952Z,16.67
2022-12-04T08:21:53.705Z,17.83
2022-12-04T08:24:24.416Z,17.10
2022-12-04T08:26:53.978Z,17.90
2022-12-04T08:29:23.721Z,18.50
2022-12-04T08:31:53.475Z,20.57
2022-12-04T08:34:26.223Z,19.17
2022-12-04T08:36:55.938Z,18.07
2022-12-04T08:39:30.954Z,25.23
2022-12-04T08:42:00.465Z,19.27
2022-12-04T08:44:30.064Z,19.47
2022-12-04T08:46:59.587Z,18.37
2022-12-04T08:49:29.864Z,18.40
2022-12-04T08:51:59.490Z,17.73
2022-12-04T08:54:34.485Z,16.73
2022-12-04T08:57:06.098Z,17.30
2022-12-04T08:59:35.582Z,16.97
2022-12-04T09:02:05.282Z,16.30
2022-12-04T09:04:35.892Z,16.20
2022-12-04T09:07:05.615Z,18.93
2022-12-04T09:09:36.067Z,17.50
2022-12-04T09:12:05.547Z,17.73
2022-12-04T09:14:35.678Z,16.10
2022-12-04T09:17:05.162Z,17.10
2022-12-04T09:19:35.887Z,17.33
2022-12-04T09:22:05.347Z,18.37
2022-12-04T09:24:35.022Z,17.67
2022-12-04T09:27:05.921Z,17.43
2022-12-04T09:29:38.651Z,15.50
2022-12-04T09:32:08.135Z,16.87
2022-12-04T09:34:38.134Z,16.97
2022-12-04T09:37:07.963Z,14.67
2022-12-04T09:39:37.682Z,15.67
2022-12-04T09:42:21.834Z,15.73
2022-12-04T09:44:59.001Z,15.10
2022-12-04T09:47:35.283Z,15.93
2022-12-04T09:50:12.513Z,16.27
2022-12-04T09:52:51.238Z,15.00
2022-12-04T09:55:27.425Z,15.87
2022-12-04T09:58:02.487Z,17.03
2022-12-04T10:00:36.800Z,15.87
2022-12-04T10:03:13.867Z,16.53
2022-12-04T10:05:57.479Z,15.47
2022-12-04T10:08:29.714Z,15.67
2022-12-04T10:13:53.618Z,17.03
2022-12-04T10:16:30.620Z,17.40
2022-12-04T10:19:09.416Z,16.93
2022-12-04T10:21:50.803Z,18.30
2022-12-04T10:24:37.734Z,16.70
2022-12-04T10:27:16.400Z,16.93
2022-12-04T10:29:53.416Z,14.40
2022-12-04T10:32:26.965Z,16.10
2022-12-04T10:35:00.674Z,16.53
2022-12-04T10:37:32.753Z,16.57
2022-12-04T10:40:12.021Z,16.15
2022-12-04T10:42:49.416Z,16.73
2022-12-04T10:45:20.821Z,18.03
2022-12-04T10:47:51.499Z,17.37
2022-12-04T10:50:24.338Z,14.57
2022-12-04T10:52:58.534Z,16.53
2022-12-04T10:55:34.003Z,16.63
2022-12-04T10:58:03.475Z,15.70
2022-12-04T11:00:36.064Z,16.20
2022-12-04T11:03:32.090Z,16.75
2022-12-04T11:06:05.794Z,14.67
2022-12-04T11:08:39.478Z,15.63
2022-12-04T11:11:12.195Z,15.40
2022-12-04T11:13:42.899Z,16.27
2022-12-04T11:16:34.949Z,18.00
2022-12-04T11:19:18.827Z,17.10
2022-12-04T11:21:49.643Z,15.93
2022-12-04T11:24:25.222Z,17.67
2022-12-04T11:26:56.063Z,17.47
2022-12-04T11:29:33.261Z,19.07
2022-12-04T11:32:07.947Z,19.57
2022-12-04T11:34:41.932Z,18.37
2022-12-04T11:37:22.805Z,19.30
2022-12-04T11:39:54.588Z,18.73
2022-12-04T11:42:27.128Z,19.32
2022-12-04T11:47:29.581Z,17.07
2022-12-04T11:50:12.555Z,18.33
2022-12-04T11:52:59.266Z,16.33
2022-12-04T11:55:40.416Z,18.17
2022-12-04T11:58:28.125Z,17.93
2022-12-04T12:01:09.950Z,19.73
2022-12-04T12:03:46.120Z,16.20
2022-12-04T12:06:30.499Z,19.67
2022-12-04T12:09:22.433Z,19.47
2022-12-04T12:12:02.580Z,17.70
2022-12-04T12:14:40.528Z,18.10
2022-12-04T12:17:21.388Z,18.37
2022-12-04T12:20:06.416Z,18.70
2022-12-04T12:23:10.427Z,16.60
2022-12-04T12:25:51.896Z,19.40
2022-12-04T12:28:44.207Z,17.10
2022-12-04T12:31:33.968Z,17.77
2022-12-04T12:34:12.061Z,17.37
2022-12-04T12:36:47.336Z,19.20
2022-12-04T12:39:24.782Z,16.37
2022-12-04T12:41:57.316Z,17.63
2022-12-04T12:44:41.038Z,20.67
2022-12-04T12:47:16.776Z,19.20
2022-12-04T12:49:51.612Z,17.63
2022-12-04T12:52:30.884Z,20.00
2022-12-04T12:55:10.628Z,17.97
2022-12-04T12:57:43.313Z,17.80
2022-12-04T13:00:18.541Z,20.17
2022-12-04T13:02:53.816Z,17.53
2022-12-04T13:05:30.331Z,20.03
2022-12-04T13:08:11.082Z,20.37
2022-12-04T13:10:48.147Z,17.90
2022-12-04T13:13:24.168Z,17.83
2022-12-04T13:15:59.497Z,18.77
2022-12-04T13:18:33.760Z,16.77
2022-12-04T13:21:06.693Z,15.87
2022-12-04T13:23:52.838Z,18.20
2022-12-04T13:26:44.853Z,16.03
2022-12-04T13:29:38.126Z,18.37
2022-12-04T13:32:28.923Z,20.30
2022-12-04T13:35:09.635Z,20.47
2022-12-04T13:37:58.277Z,19.73
2022-12-04T13:40:36.245Z,19.03
2022-12-04T13:43:24.776Z,19.90
2022-12-04T13:45:56.663Z,18.53
2022-12-04T13:48:32.058Z,17.77
2022-12-04T13:51:34.453Z,19.37
2022-12-04T13:54:22.616Z,17.95
2022-12-04T13:56:55.443Z,19.53
2022-12-04T13:59:36.734Z,19.50
2022-12-04T14:02:24.346Z,18.77
2022-12-04T14:04:59.024Z,18.93
2022-12-04T14:07:33.336Z,20.57
2022-12-04T14:10:12.620Z,19.97
2022-12-04T14:12:49.218Z,18.90
2022-12-04T14:15:24.453Z,18.93
2022-12-04T14:18:16.240Z,20.43
2022-12-04T14:20:57.289Z,20.27
2022-12-04T14:23:35.319Z,20.40
2022-12-04T14:26:05.937Z,20.63
2022-12-04T14:28:43.461Z,19.60
2022-12-04T14:31:34.248Z,21.30
2022-12-04T14:34:15.229Z,24.10
2022-12-04T14:36:51.810Z,22.53
2022-12-04T14:39:27.405Z,24.90
2022-12-04T14:42:12.203Z,23.57
2022-12-04T14:44:45.287Z,28.30
2022-12-04T14:47:26.115Z,26.37
2022-12-04T14:50:20.217Z,26.23
2022-12-04T14:53:00.515Z,24.47
2022-12-04T14:55:39.100Z,28.37
2022-12-04T14:58:34.420Z,25.35
2022-12-04T15:01:07.053Z,24.50
2022-12-04T15:03:44.714Z,25.37
2022-12-04T15:06:21.109Z,25.50
2022-12-04T15:09:13.865Z,26.77
2022-12-04T15:14:42.648Z,27.70
2022-12-04T15:17:18.350Z,24.47
2022-12-04T15:19:48.015Z,29.10
2022-12-04T15:22:23.694Z,28.33
2022-12-04T15:24:55.094Z,26.70
2022-12-04T15:27:32.482Z,29.03
2022-12-04T15:30:04.057Z,28.10
2022-12-04T15:32:33.904Z,26.77
2022-12-04T15:35:08.668Z,23.80
2022-12-04T15:37:40.814Z,23.63
2022-12-04T15:40:22.067Z,24.30
2022-12-04T15:42:53.315Z,24.65
2022-12-04T15:45:33.846Z,25.13
2022-12-04T15:48:04.576Z,24.37
2022-12-04T15:50:35.489Z,24.27
2022-12-04T15:53:16.946Z,25.00
2022-12-04T15:55:52.367Z,23.60
2022-12-04T15:58:26.701Z,24.63
2022-12-04T16:00:58.747Z,23.87
2022-12-04T16:03:32.011Z,23.30
2022-12-04T16:06:16.263Z,25.03
2022-12-04T16:08:48.066Z,21.73
2022-12-04T16:14:14.953Z,21.23
2022-12-04T16:16:49.406Z,22.82
2022-12-04T16:19:30.148Z,24.10
2022-12-04T16:22:00.917Z,20.30
2022-12-04T16:24:32.411Z,20.83
2022-12-04T16:27:04.193Z,21.50
2022-12-04T16:29:33.624Z,19.50
2022-12-04T16:32:03.787Z,22.50
2022-12-04T16:34:34.475Z,21.57
2022-12-04T16:37:11.918Z,23.23
2022-12-04T16:39:42.003Z,22.43
2022-12-04T16:42:20.462Z,22.13
2022-12-04T16:44:51.209Z,23.85
2022-12-04T16:47:21.766Z,26.93
2022-12-04T16:49:52.824Z,26.00
2022-12-04T16:52:22.782Z,22.23
2022-12-04T16:54:53.647Z,23.37
2022-12-04T16:57:23.567Z,23.80
2022-12-04T16:59:53.145Z,25.97
2022-12-04T17:02:26.875Z,27.60
2022-12-04T17:04:58.125Z,26.40
2022-12-04T17:07:31.048Z,28.47
2022-12-04T17:10:02.232Z,25.13
2022-12-04T17:12:32.551Z,26.43
2022-12-04T17:15:02.261Z,25.27
2022-12-04T17:17:32.513Z,25.73
2022-12-04T17:20:02.364Z,25.40
2022-12-04T17:22:32.552Z,32.63
2022-12-04T17:25:04.739Z,30.60
2022-12-04T17:27:36.565Z,28.27
2022-12-04T17:30:08.727Z,29.70
2022-12-04T17:32:39.418Z,29.23
2022-12-04T17:35:12.074Z,31.53
2022-12-04T17:37:42.056Z,27.97
2022-12-04T17:40:14.517Z,29.73
2022-12-04T17:42:44.526Z,26.55
2022-12-04T17:45:16.370Z,26.93
2022-12-04T17:47:45.956Z,26.35
2022-12-04T17:50:15.644Z,26.67
2022-12-04T17:52:45.251Z,25.77
2022-12-04T17:55:14.957Z,23.17
2022-12-04T17:57:44.955Z,22.07
2022-12-04T18:00:16.056Z,21.73
2022-12-04T18:02:52.883Z,19.20
2022-12-04T18:05:23.064Z,19.30
2022-12-04T18:07:56.333Z,23.43
2022-12-04T18:10:26.391Z,22.77
2022-12-04T18:12:55.889Z,23.77
2022-12-04T18:15:27.475Z,23.40
2022-12-04T18:17:58.215Z,21.33
2022-12-04T18:20:29.083Z,21.15
2022-12-04T18:23:00.261Z,21.47
2022-12-04T18:25:30.095Z,20.47
2022-12-04T18:28:00.922Z,21.53
2022-12-04T18:30:30.559Z,23.07
2022-12-04T18:33:00.109Z,25.70
2022-12-04T18:35:29.697Z,26.33
2022-12-04T18:37:59.558Z,29.80
2022-12-04T18:40:29.559Z,25.10
2022-12-04T18:42:59.045Z,26.67
2022-12-04T18:45:29.740Z,26.37
2022-12-04T18:47:59.245Z,23.43
2022-12-04T18:50:30.063Z,25.80
2022-12-04T18:53:01.986Z,22.80
2022-12-04T18:55:34.954Z,24.72
2022-12-04T18:58:08.477Z,23.50
2022-12-04T19:00:42.440Z,23.63
2022-12-04T19:03:13.093Z,27.63
2022-12-04T19:05:49.598Z,23.57
2022-12-04T19:08:19.349Z,24.77
2022-12-04T19:10:48.922Z,22.17
2022-12-04T19:13:18.850Z,23.10
2022-12-04T19:15:49.204Z,21.40
2022-12-04T19:18:19.559Z,23.53
2022-12-04T19:20:49.162Z,23.83
2022-12-04T19:23:18.915Z,23.97
2022-12-04T19:25:57.108Z,25.00
2022-12-04T19:28:28.100Z,20.30
2022-12-04T19:30:57.719Z,25.63
2022-12-04T19:33:29.063Z,23.20
2022-12-04T19:36:00.438Z,25.53
2022-12-04T19:38:32.244Z,29.17
2022-12-04T19:41:09.856Z,24.03
2022-12-04T19:43:42.813Z,27.43
2022-12-04T19:46:17.083Z,26.45
2022-12-04T19:48:48.555Z,26.82
2022-12-04T19:51:20.311Z,23.83
2022-12-04T19:53:50.382Z,23.60
2022-12-04T19:56:23.946Z,23.03
2022-12-04T19:58:54.986Z,23.70
2022-12-04T20:01:28.130Z,24.30
2022-12-04T20:03:59.490Z,26.40
2022-12-04T20:06:30.944Z,24.83
2022-12-04T20:09:01.854Z,24.97
2022-12-04T20:11:37.808Z,25.83
2022-12-04T20:14:08.566Z,24.07
2022-12-04T20:16:39.708Z,26.77
2022-12-04T20:19:14.508Z,28.03
2022-12-04T20:21:45.150Z,23.87
2022-12-04T20:24:16.701Z,23.97
2022-12-04T20:26:47.423Z,26.45
2022-12-04T20:29:19.252Z,25.13
2022-12-04T20:31:49.023Z,28.20
2022-12-04T20:34:19.806Z,26.10
2022-12-04T20:36:50.240Z,24.77
2022-12-04T20:39:20.568Z,27.10
2022-12-04T20:41:50.407Z,23.53
2022-12-04T20:44:20.634Z,26.03
2022-12-04T20:46:50.516Z,22.70
2022-12-04T20:49:22.319Z,25.20
2022-12-04T20:51:53.081Z,26.50
2022-12-04T20:54:23.660Z,25.97
2022-12-04T20:56:53.419Z,27.63
2022-12-04T20:59:24.407Z,23.80
2022-12-04T21:01:54.864Z,23.50
2022-12-04T21:04:24.439Z,27.00
2022-12-04T21:06:54.035Z,23.10
2022-12-04T21:09:24.845Z,27.73
2022-12-04T21:11:56.048Z,22.03
2022-12-04T21:14:46.982Z,22.57
2022-12-04T21:17:19.129Z,25.30
2022-12-04T21:19:51.063Z,22.03
2022-12-04T21:22:20.899Z,21.93
2022-12-04T21:24:50.440Z,20.53
2022-12-04T21:27:21.414Z,21.53
2022-12-04T21:29:52.080Z,22.87
2022-12-04T21:32:21.800Z,22.80
2022-12-04T21:34:51.701Z,21.37
2022-12-04T21:37:21.403Z,21.60
2022-12-04T21:39:51.123Z,23.03
2022-12-04T21:42:35.905Z,18.60
2022-12-04T21:45:08.250Z,18.17
2022-12-04T21:50:08.769Z,21.77
2022-12-04T21:52:38.258Z,22.77
2022-12-04T21:55:08.575Z,19.67
2022-12-04T21:57:38.233Z,19.53
2022-12-04T22:00:10.317Z,17.97
2022-12-04T22:02:39.813Z,20.05
2022-12-04T22:05:10.431Z,15.90
2022-12-04T22:07:40.082Z,17.60
2022-12-04T22:10:11.354Z,16.90
2022-12-04T22:12:49.705Z,17.77
2022-12-04T22:15:20.176Z,17.33
2022-12-04T22:17:49.649Z,16.93
2022-12-04T22:20:19.415Z,15.70
2022-12-04T22:22:49.345Z,17.70
2022-12-04T22:25:18.919Z,18.17
2022-12-04T22:27:48.472Z,18.67
2022-12-04T22:30:18.904Z,16.20
2022-12-04T22:32:48.440Z,18.00
2022-12-04T22:35:18.494Z,21.17
2022-12-04T22:37:51.132Z,18.43
2022-12-04T22:40:20.872Z,16.00
2022-12-04T22:42:50.469Z,16.73
2022-12-04T22:45:20.042Z,18.23
2022-12-04T22:47:51.911Z,17.05
2022-12-04T22:50:21.492Z,17.53
2022-12-04T22:52:50.923Z,18.73
2022-12-04T22:55:20.579Z,19.60
2022-12-04T22:57:49.953Z,16.10
2022-12-04T23:00:19.934Z,20.43
2022-12-04T23:02:49.478Z,16.10
2022-12-04T23:05:19.075Z,15.33
2022-12-04T23:07:50.538Z,16.77
2022-12-04T23:10:20.006Z,16.40
2022-12-04T23:12:49.451Z,18.33
2022-12-04T23:15:19.104Z,15.60
2022-12-04T23:17:48.629Z,19.93
2022-12-04T23:20:18.871Z,18.53
2022-12-04T23:22:54.292Z,18.00
2022-12-04T23:25:23.965Z,19.80
2022-12-04T23:27:53.694Z,20.70
2022-12-04T23:30:28.368Z,19.47
2022-12-04T23:32:59.515Z,17.10
2022-12-04T23:35:29.800Z,17.10
2022-12-04T23:37:59.261Z,19.27
2022-12-04T23:40:28.909Z,20.83
2022-12-04T23:42:58.475Z,20.47
2022-12-04T23:45:29.056Z,18.97
2022-12-04T23:47:58.580Z,15.90
2022-12-04T23:50:28.144Z,17.80
2022-12-04T23:52:57.658Z,22.23
2022-12-04T23:55:31.146Z,22.37
2022-12-04T23:58:04.202Z,21.67
